Time;durP1;ratioP1;P1;durP2;ratioP2;P2;SDS_P1;SDS_P2;PMS_P1;PMS_P2;Temp;Humidity;BMP_temperature;BMP_pressure;BME280_temperature;BME280_humidity;BME280_pressure;Samples;Min_cycle;Max_cycle;Signal;HPM_P1;HPM_P2
2021/07/13 00:01:26;;;;;;;10.33;9.40;;;21.50;99.90;;;;;;5066802;28;20404;-69
2021/07/13 00:03:55;;;;;;;9.97;9.07;;;21.60;99.90;;;;;;5059027;28;20236;-69
2021/07/13 00:06:41;;;;;;;9.37;8.57;;;21.60;99.90;;;;;;5049105;28;20227;-69
2021/07/13 00:09:11;;;;;;;10.67;9.67;;;21.60;99.90;;;;;;5059106;28;20259;-69
2021/07/13 00:11:40;;;;;;;10.33;9.47;;;21.60;99.90;;;;;;5070182;28;20253;-68
2021/07/13 00:14:10;;;;;;;10.70;9.70;;;21.50;99.90;;;;;;5061143;28;20243;-69
2021/07/13 00:16:39;;;;;;;11.47;10.33;;;21.50;99.90;;;;;;5049785;28;20231;-69
2021/07/13 00:19:08;;;;;;;11.27;10.27;;;21.50;99.90;;;;;;5049319;28;20262;-68
2021/07/13 00:21:40;;;;;;;11.80;10.60;;;21.50;99.90;;;;;;5049584;28;20227;-69
2021/07/13 00:24:10;;;;;;;11.67;10.47;;;21.50;99.90;;;;;;5058876;28;20740;-69
2021/07/13 00:26:39;;;;;;;11.23;10.23;;;21.50;99.90;;;;;;5070061;28;20322;-69
2021/07/13 00:29:09;;;;;;;11.57;10.47;;;21.50;99.90;;;;;;5067968;28;20231;-69
2021/07/13 00:31:38;;;;;;;11.73;10.30;;;21.50;99.90;;;;;;5069694;28;20243;-68
2021/07/13 00:34:08;;;;;;;12.33;11.23;;;21.50;99.90;;;;;;5060965;28;20239;-68
2021/07/13 00:36:38;;;;;;;11.47;10.40;;;21.50;99.90;;;;;;5049544;28;20239;-68
2021/07/13 00:39:08;;;;;;;12.00;10.90;;;21.50;99.90;;;;;;5058040;28;20325;-66
2021/07/13 00:41:38;;;;;;;11.30;10.33;;;21.50;99.90;;;;;;5064315;28;20230;-68
2021/07/13 00:44:08;;;;;;;11.47;10.43;;;21.50;99.90;;;;;;5057773;28;20299;-68
2021/07/13 00:46:48;;;;;;;11.10;10.20;;;21.50;99.90;;;;;;5069698;28;20284;-69
2021/07/13 00:49:19;;;;;;;11.13;10.07;;;21.50;99.90;;;;;;5059292;28;20310;-68
2021/07/13 00:51:48;;;;;;;12.27;11.20;;;21.40;99.90;;;;;;5049670;28;20289;-68
2021/07/13 00:54:21;;;;;;;11.07;10.27;;;21.40;99.90;;;;;;5059400;28;20245;-66
2021/07/13 00:56:53;;;;;;;11.70;10.70;;;21.40;99.90;;;;;;5069511;28;20762;-69
2021/07/13 00:59:22;;;;;;;10.83;9.93;;;21.40;99.90;;;;;;5058404;28;20258;-68
2021/07/13 01:01:52;;;;;;;12.03;10.93;;;21.40;99.90;;;;;;5047911;28;20231;-68
2021/07/13 01:04:22;;;;;;;11.17;10.27;;;21.40;99.90;;;;;;5060236;28;20317;-69
2021/07/13 01:06:59;;;;;;;11.97;10.83;;;21.40;99.90;;;;;;5069047;28;20245;-69
2021/07/13 01:09:39;;;;;;;11.70;10.80;;;21.40;99.90;;;;;;5056889;28;20860;-68
2021/07/13 01:12:24;;;;;;;12.37;11.20;;;21.40;99.90;;;;;;5048982;28;20254;-68
2021/07/13 01:14:56;;;;;;;11.33;10.23;;;21.40;99.90;;;;;;5064310;28;20230;-68
2021/07/13 01:17:33;;;;;;;12.17;10.97;;;21.50;99.90;;;;;;5068364;28;20622;-68
2021/07/13 01:20:23;;;;;;;11.73;10.67;;;21.50;99.90;;;;;;5052544;28;20270;-69
2021/07/13 01:23:03;;;;;;;12.77;11.50;;;21.40;99.90;;;;;;5037371;28;20580;-68
2021/07/13 01:25:42;;;;;;;12.13;10.83;;;21.40;99.90;;;;;;5028788;28;20239;-68
2021/07/13 01:28:17;;;;;;;11.03;10.13;;;21.40;99.90;;;;;;5033878;28;20239;-68
2021/07/13 01:30:52;;;;;;;12.70;11.60;;;21.30;99.90;;;;;;5051149;28;20234;-68
2021/07/13 01:33:25;;;;;;;11.17;10.17;;;21.30;99.90;;;;;;5050909;28;20305;-68
2021/07/13 01:35:58;;;;;;;10.90;10.10;;;21.30;99.90;;;;;;5068587;28;20235;-68
2021/07/13 01:38:31;;;;;;;11.87;10.57;;;21.40;99.90;;;;;;5067933;28;20459;-69
2021/07/13 01:41:03;;;;;;;12.30;11.20;;;21.40;99.90;;;;;;5066187;28;20629;-69
2021/07/13 01:43:37;;;;;;;11.00;10.10;;;21.40;99.90;;;;;;5051949;28;20239;-69
2021/07/13 01:46:07;;;;;;;10.77;9.87;;;21.40;99.90;;;;;;5048930;28;20251;-68
2021/07/13 01:48:38;;;;;;;11.03;10.13;;;21.40;99.90;;;;;;5047768;28;20258;-68
2021/07/13 01:51:09;;;;;;;11.17;10.20;;;21.30;99.90;;;;;;5048153;28;20235;-68
2021/07/13 01:53:39;;;;;;;11.23;10.23;;;21.30;99.90;;;;;;5048067;28;20235;-68
2021/07/13 01:56:10;;;;;;;11.97;10.97;;;21.30;99.90;;;;;;5048475;28;20242;-68
2021/07/13 01:58:43;;;;;;;11.17;10.10;;;21.30;99.90;;;;;;5047484;28;20242;-67
2021/07/13 02:01:14;;;;;;;11.13;10.13;;;21.30;99.90;;;;;;5028426;28;20243;-69
2021/07/13 02:03:44;;;;;;;10.77;9.77;;;21.30;99.90;;;;;;5038537;28;20253;-69
2021/07/13 02:06:15;;;;;;;10.80;10.00;;;21.30;99.90;;;;;;5068172;28;20238;-69
2021/07/13 02:08:48;;;;;;;12.93;11.80;;;21.40;99.90;;;;;;5062275;28;20796;-69
2021/07/13 02:11:16;;;;;;;12.70;11.57;;;21.30;99.90;;;;;;5048160;28;20765;-69
2021/07/13 02:13:46;;;;;;;12.00;10.30;;;21.30;99.90;;;;;;5047248;28;20711;-69
2021/07/13 02:16:15;;;;;;;12.33;11.23;;;21.30;99.90;;;;;;5047702;28;20657;-69
2021/07/13 02:18:43;;;;;;;12.27;11.10;;;21.30;99.90;;;;;;5052719;28;20698;-69
2021/07/13 02:21:14;;;;;;;12.30;11.30;;;21.30;99.90;;;;;;5068138;28;20764;-69
2021/07/13 02:23:42;;;;;;;12.87;11.80;;;21.30;99.90;;;;;;5062370;28;20265;-70
2021/07/13 02:26:16;;;;;;;12.33;11.13;;;21.20;99.90;;;;;;5047268;28;20266;-67
2021/07/13 02:28:48;;;;;;;13.10;11.97;;;21.30;99.90;;;;;;5048599;28;21804;-68
2021/07/13 02:31:19;;;;;;;12.60;11.50;;;21.30;99.90;;;;;;5047731;28;20318;-69
2021/07/13 02:33:52;;;;;;;13.33;12.00;;;21.20;99.90;;;;;;5053302;28;20598;-68
2021/07/13 02:36:26;;;;;;;11.80;10.90;;;21.20;99.90;;;;;;5059908;28;20694;-69
2021/07/13 02:38:55;;;;;;;11.63;10.63;;;21.30;99.90;;;;;;5054126;28;20287;-69
2021/07/13 02:41:24;;;;;;;11.97;10.97;;;21.30;99.90;;;;;;5067935;28;20231;-67
2021/07/13 02:43:54;;;;;;;12.97;11.97;;;21.30;99.90;;;;;;5060872;28;20635;-69
2021/07/13 02:46:23;;;;;;;12.63;11.40;;;21.20;99.90;;;;;;5047290;28;20266;-69
2021/07/13 02:48:52;;;;;;;11.63;10.63;;;21.10;99.90;;;;;;5053644;28;20243;-69
2021/07/13 02:51:21;;;;;;;11.27;10.20;;;21.10;99.90;;;;;;5065628;28;20243;-69
2021/07/13 02:53:50;;;;;;;10.93;10.00;;;21.10;99.90;;;;;;5060853;28;20326;-69
2021/07/13 02:56:19;;;;;;;12.50;11.23;;;21.10;99.90;;;;;;5061863;28;20232;-69
2021/07/13 02:58:49;;;;;;;11.87;10.87;;;21.10;99.90;;;;;;5052668;28;20292;-68
2021/07/13 03:01:18;;;;;;;12.20;11.30;;;21.10;99.90;;;;;;5067653;28;20242;-69
2021/07/13 03:03:50;;;;;;;12.13;10.93;;;21.00;99.90;;;;;;5066778;28;20239;-69
2021/07/13 03:06:20;;;;;;;12.37;11.27;;;21.00;99.90;;;;;;5060804;28;20642;-68
2021/07/13 03:08:49;;;;;;;11.57;10.40;;;21.00;99.90;;;;;;5046758;28;20235;-69
2021/07/13 03:11:18;;;;;;;12.43;11.33;;;21.00;99.90;;;;;;5047301;28;20314;-69
2021/07/13 03:13:46;;;;;;;12.63;11.37;;;21.00;99.90;;;;;;5047316;28;20592;-69
2021/07/13 03:16:15;;;;;;;12.87;11.87;;;20.90;99.90;;;;;;5046691;28;20283;-68
2021/07/13 03:18:46;;;;;;;13.67;12.57;;;20.90;99.90;;;;;;5052013;28;20229;-69
2021/07/13 03:21:18;;;;;;;13.67;12.50;;;20.90;99.90;;;;;;5067470;28;20234;-69
2021/07/13 03:23:46;;;;;;;13.10;11.97;;;20.90;99.90;;;;;;5066790;28;20235;-69
2021/07/13 03:26:14;;;;;;;14.27;13.07;;;20.80;99.90;;;;;;5061587;28;20235;-69
2021/07/13 03:28:43;;;;;;;14.27;12.97;;;20.80;99.90;;;;;;5047919;28;20273;-68
2021/07/13 03:31:12;;;;;;;13.97;12.77;;;20.80;99.90;;;;;;5047154;28;20231;-69
2021/07/13 03:33:41;;;;;;;14.20;12.93;;;20.70;99.90;;;;;;5046699;28;20247;-68
2021/07/13 03:36:11;;;;;;;15.33;14.00;;;20.70;99.90;;;;;;5046725;28;20227;-68
2021/07/13 03:38:40;;;;;;;14.33;12.87;;;20.70;99.90;;;;;;5050992;28;20230;-68
2021/07/13 03:41:08;;;;;;;15.00;13.70;;;20.70;99.90;;;;;;5068882;28;20244;-69
2021/07/13 03:43:37;;;;;;;14.30;13.10;;;20.60;99.90;;;;;;5082681;28;20235;-68
2021/07/13 03:46:05;;;;;;;16.13;14.53;;;20.60;99.90;;;;;;5050273;28;20235;-69
2021/07/13 03:48:35;;;;;;;14.60;13.37;;;20.60;99.90;;;;;;5054114;28;20658;-67
2021/07/13 03:51:04;;;;;;;14.03;12.83;;;20.60;99.90;;;;;;5070682;28;20636;-69
2021/07/13 03:53:33;;;;;;;14.87;13.47;;;20.70;99.90;;;;;;5066430;28;20246;-69
2021/07/13 03:56:02;;;;;;;14.30;13.00;;;20.70;99.90;;;;;;5050254;28;20235;-68
2021/07/13 03:58:30;;;;;;;14.00;12.70;;;20.70;99.90;;;;;;5053238;28;20249;-68
2021/07/13 04:00:58;;;;;;;13.10;11.90;;;20.80;99.90;;;;;;5070299;28;20246;-69
2021/07/13 04:03:26;;;;;;;15.30;13.90;;;20.80;99.90;;;;;;5069984;28;20590;-69
2021/07/13 04:05:55;;;;;;;13.73;12.53;;;20.80;99.90;;;;;;5067413;28;20227;-69
2021/07/13 04:08:23;;;;;;;15.93;14.53;;;20.80;99.90;;;;;;5052465;28;20235;-69
2021/07/13 04:10:52;;;;;;;13.80;12.57;;;20.80;99.90;;;;;;5070436;28;20234;-68
2021/07/13 04:13:20;;;;;;;13.73;12.43;;;20.80;99.90;;;;;;5067998;28;20249;-68
2021/07/13 04:15:49;;;;;;;13.23;11.90;;;20.80;99.90;;;;;;5049905;28;20239;-69
2021/07/13 04:18:18;;;;;;;14.07;12.67;;;20.70;99.90;;;;;;5051692;28;20609;-68
2021/07/13 04:20:46;;;;;;;15.37;13.77;;;20.80;99.90;;;;;;5069623;28;20252;-68
2021/07/13 04:23:14;;;;;;;13.67;12.37;;;20.80;99.90;;;;;;5070128;28;20235;-68
2021/07/13 04:25:43;;;;;;;15.13;13.83;;;20.80;99.90;;;;;;5066218;28;20367;-69
2021/07/13 04:28:12;;;;;;;13.37;12.03;;;20.90;99.90;;;;;;5034491;28;20634;-69
2021/07/13 04:30:41;;;;;;;13.93;11.07;;;20.90;99.90;;;;;;5049731;28;20243;-69
2021/07/13 04:33:09;;;;;;;11.97;10.90;;;20.90;99.90;;;;;;5049436;28;20611;-69
2021/07/13 04:35:38;;;;;;;11.97;10.87;;;21.00;99.90;;;;;;5049657;28;20233;-67
2021/07/13 04:38:06;;;;;;;13.30;11.97;;;21.00;99.90;;;;;;5049829;28;20239;-68
2021/07/13 04:40:35;;;;;;;15.43;13.77;;;20.90;99.90;;;;;;5069382;28;20297;-69
2021/07/13 04:43:03;;;;;;;13.30;12.00;;;20.80;99.90;;;;;;5069824;28;20238;-70
2021/07/13 04:45:32;;;;;;;14.63;13.20;;;20.90;99.90;;;;;;5029413;28;20315;-68
2021/07/13 04:48:00;;;;;;;13.87;12.60;;;20.80;99.90;;;;;;5048943;28;20259;-68
2021/07/13 04:50:30;;;;;;;13.97;12.77;;;20.80;99.90;;;;;;5068923;28;20231;-68
2021/07/13 04:53:02;;;;;;;14.13;12.93;;;21.00;99.90;;;;;;5069297;28;20288;-69
2021/07/13 04:55:30;;;;;;;14.60;13.30;;;21.00;99.90;;;;;;5049265;28;20235;-70
2021/07/13 04:57:58;;;;;;;14.23;12.77;;;21.00;99.90;;;;;;5048648;28;20322;-70
2021/07/13 05:00:26;;;;;;;15.23;13.90;;;21.10;99.90;;;;;;5050784;28;20253;-69
2021/07/13 05:02:55;;;;;;;16.30;14.70;;;21.10;99.90;;;;;;5049683;28;20239;-70
2021/07/13 05:05:24;;;;;;;15.70;14.20;;;21.10;99.90;;;;;;5066129;28;20242;-70
2021/07/13 05:07:53;;;;;;;13.83;12.53;;;21.10;99.90;;;;;;5048615;28;20269;-69
2021/07/13 05:10:21;;;;;;;15.10;13.83;;;21.20;99.90;;;;;;5050701;28;20245;-71
2021/07/13 05:12:49;;;;;;;15.10;13.77;;;21.20;99.90;;;;;;5048466;28;20304;-68
2021/07/13 05:15:17;;;;;;;14.77;13.47;;;21.20;99.90;;;;;;5048756;28;20232;-71
2021/07/13 05:17:45;;;;;;;15.10;13.53;;;21.20;99.90;;;;;;5029639;28;20239;-70
2021/07/13 05:20:15;;;;;;;16.07;14.57;;;21.20;99.90;;;;;;5046436;28;20239;-70
2021/07/13 05:22:45;;;;;;;16.63;14.90;;;21.30;99.90;;;;;;5039961;28;20268;-70
2021/07/13 05:25:14;;;;;;;16.73;15.13;;;21.30;99.90;;;;;;5045840;28;20247;-70
2021/07/13 05:27:43;;;;;;;17.90;16.23;;;21.40;99.90;;;;;;5031359;28;20325;-70
2021/07/13 05:30:13;;;;;;;16.57;15.17;;;21.40;99.90;;;;;;5026104;28;20275;-70
2021/07/13 05:32:41;;;;;;;14.30;13.00;;;21.50;99.90;;;;;;5041014;28;20324;-71
2021/07/13 05:35:10;;;;;;;14.63;13.30;;;21.60;99.90;;;;;;5063993;28;20281;-69
2021/07/13 05:37:40;;;;;;;14.93;13.43;;;21.60;99.90;;;;;;5065801;28;20717;-70
2021/07/13 05:40:09;;;;;;;16.30;14.70;;;21.70;99.90;;;;;;5063141;28;20239;-69
2021/07/13 05:42:37;;;;;;;17.40;15.63;;;21.80;99.90;;;;;;5063691;28;20235;-70
2021/07/13 05:45:07;;;;;;;17.50;14.63;;;21.90;99.90;;;;;;5046494;28;20513;-71
2021/07/13 05:47:35;;;;;;;15.33;14.03;;;21.90;99.90;;;;;;5044684;28;20231;-70
2021/07/13 05:50:04;;;;;;;14.80;13.40;;;22.00;99.90;;;;;;5061202;28;20242;-71
2021/07/13 05:52:33;;;;;;;15.17;13.70;;;22.10;99.90;;;;;;5064815;28;20249;-69
2021/07/13 05:55:03;;;;;;;15.17;13.67;;;22.20;99.90;;;;;;5049099;28;20246;-71
2021/07/13 05:57:31;;;;;;;14.33;13.10;;;22.30;99.90;;;;;;5045070;28;20243;-69
2021/07/13 05:59:59;;;;;;;15.07;13.67;;;22.60;99.90;;;;;;5059752;28;20610;-69
2021/07/13 06:02:28;;;;;;;13.83;12.40;;;22.80;99.90;;;;;;5064784;28;20327;-71
2021/07/13 06:04:59;;;;;;;15.43;13.83;;;23.00;99.90;;;;;;5048303;28;20322;-70
2021/07/13 06:07:27;;;;;;;16.27;14.40;;;23.00;99.90;;;;;;5044992;28;20240;-71
2021/07/13 06:09:56;;;;;;;15.03;13.63;;;23.00;99.90;;;;;;5060181;28;20242;-71
2021/07/13 06:12:25;;;;;;;15.83;14.43;;;22.90;99.90;;;;;;5064964;28;20235;-70
2021/07/13 06:14:54;;;;;;;16.03;14.73;;;22.80;99.90;;;;;;5049067;28;20726;-70
2021/07/13 06:17:27;;;;;;;16.53;15.13;;;22.80;99.90;;;;;;5044249;28;20271;-70
2021/07/13 06:19:55;;;;;;;15.30;14.00;;;22.80;99.90;;;;;;5060804;28;20254;-71
2021/07/13 06:22:23;;;;;;;16.80;15.27;;;22.80;99.90;;;;;;5067662;28;20235;-71
2021/07/13 06:24:51;;;;;;;16.33;14.77;;;23.00;99.90;;;;;;5046601;28;20485;-70
2021/07/13 06:27:19;;;;;;;16.23;14.63;;;23.10;99.90;;;;;;5056908;28;20672;-71
2021/07/13 06:29:49;;;;;;;15.57;14.23;;;23.30;99.90;;;;;;5045420;28;20228;-71
2021/07/13 06:32:17;;;;;;;15.53;13.70;;;23.50;99.90;;;;;;5044698;28;20604;-70
2021/07/13 06:34:45;;;;;;;14.07;12.70;;;23.80;99.90;;;;;;5057628;28;20246;-70
2021/07/13 06:37:13;;;;;;;14.43;13.20;;;24.00;99.90;;;;;;5064354;28;20239;-69
2021/07/13 06:39:44;;;;;;;15.27;13.70;;;24.10;99.90;;;;;;5050547;28;20236;-71
2021/07/13 06:42:12;;;;;;;14.17;12.30;;;24.20;99.90;;;;;;5044265;28;20244;-70
2021/07/13 06:44:40;;;;;;;13.97;12.57;;;24.50;99.90;;;;;;5043788;28;20241;-70
2021/07/13 06:47:10;;;;;;;13.70;12.50;;;24.70;99.90;;;;;;5043987;28;20626;-70
2021/07/13 06:49:40;;;;;;;14.47;13.03;;;24.80;99.90;;;;;;5056336;28;20329;-70
2021/07/13 06:52:08;;;;;;;13.00;11.93;;;25.10;99.90;;;;;;5064533;28;20294;-70
2021/07/13 06:54:36;;;;;;;13.97;12.67;;;25.30;99.90;;;;;;5051444;28;20285;-71
2021/07/13 06:57:05;;;;;;;13.60;12.60;;;25.20;99.90;;;;;;5043309;28;20232;-71
2021/07/13 06:59:34;;;;;;;14.27;12.87;;;25.30;99.90;;;;;;5055619;28;20235;-70
2021/07/13 07:02:02;;;;;;;13.20;12.17;;;25.30;99.90;;;;;;5064661;28;20246;-70
2021/07/13 07:04:32;;;;;;;11.23;10.10;;;25.50;99.90;;;;;;5051362;28;20438;-68
2021/07/13 07:07:00;;;;;;;11.90;10.80;;;25.80;99.90;;;;;;5044183;28;20245;-69
2021/07/13 07:09:28;;;;;;;12.67;11.53;;;26.00;99.90;;;;;;5054736;28;20230;-69
2021/07/13 07:11:56;;;;;;;12.80;11.67;;;26.20;99.90;;;;;;5062825;28;20622;-70
2021/07/13 07:14:24;;;;;;;13.37;12.17;;;26.30;99.90;;;;;;5065162;28;20237;-69
2021/07/13 07:16:52;;;;;;;11.97;10.87;;;26.40;99.90;;;;;;5067734;28;20324;-69
2021/07/13 07:19:21;;;;;;;11.50;10.50;;;26.70;99.90;;;;;;5067997;28;20674;-69
2021/07/13 07:21:50;;;;;;;13.00;11.87;;;27.00;99.90;;;;;;5041715;28;20299;-67
2021/07/13 07:24:19;;;;;;;12.13;10.93;;;27.10;99.90;;;;;;5040313;28;20726;-68
2021/07/13 07:26:47;;;;;;;12.60;11.50;;;27.20;99.90;;;;;;5033177;28;20285;-70
2021/07/13 07:29:16;;;;;;;13.10;12.00;;;27.20;99.90;;;;;;5043032;28;20261;-67
2021/07/13 07:31:44;;;;;;;14.27;13.10;;;27.10;99.90;;;;;;5032944;28;20778;-67
2021/07/13 07:34:13;;;;;;;13.50;12.30;;;27.20;99.90;;;;;;5040274;28;20246;-70
2021/07/13 07:36:41;;;;;;;13.33;12.20;;;27.00;99.90;;;;;;5053548;28;20253;-67
2021/07/13 07:39:11;;;;;;;12.17;10.97;;;26.90;99.90;;;;;;5044848;28;20248;-70
2021/07/13 07:41:39;;;;;;;11.93;10.93;;;27.10;99.90;;;;;;5034139;28;20611;-68
2021/07/13 07:44:10;;;;;;;12.23;11.13;;;27.40;99.90;;;;;;5030990;28;20670;-69
2021/07/13 07:46:41;;;;;;;11.53;10.43;;;27.60;99.90;;;;;;5041649;28;20242;-70
2021/07/13 07:49:10;;;;;;;12.80;11.53;;;27.90;99.90;;;;;;5038217;28;20242;-69
2021/07/13 07:51:38;;;;;;;13.77;12.40;;;28.20;99.90;;;;;;5043815;28;20253;-70
2021/07/13 07:54:07;;;;;;;12.07;11.07;;;27.90;99.90;;;;;;5034232;28;20366;-68
2021/07/13 07:56:36;;;;;;;13.50;12.30;;;27.70;99.90;;;;;;5040973;28;21208;-68
2021/07/13 07:59:05;;;;;;;13.70;12.50;;;27.50;99.90;;;;;;5036297;28;20247;-68
2021/07/13 08:01:33;;;;;;;14.93;13.43;;;27.50;99.90;;;;;;5037487;28;20243;-68
2021/07/13 08:04:01;;;;;;;13.20;11.90;;;27.40;99.90;;;;;;5037052;28;20241;-69
2021/07/13 08:06:29;;;;;;;14.30;13.20;;;27.60;99.90;;;;;;5039825;28;20262;-70
2021/07/13 08:08:57;;;;;;;15.87;14.07;;;28.00;99.90;;;;;;5065530;28;20766;-67
2021/07/13 08:11:25;;;;;;;16.07;14.70;;;28.00;99.90;;;;;;5038132;28;20246;-68
2021/07/13 08:13:55;;;;;;;15.37;13.97;;;28.10;99.90;;;;;;5038698;28;20325;-70
2021/07/13 08:16:23;;;;;;;14.40;13.07;;;28.40;99.90;;;;;;5037187;28;20323;-69
2021/07/13 08:18:52;;;;;;;13.87;12.57;;;28.50;99.90;;;;;;5037570;28;20659;-69
2021/07/13 08:21:36;;;;;;;14.80;13.47;;;28.40;99.90;;;;;;5039710;28;20697;-70
2021/07/13 08:24:05;;;;;;;13.40;12.20;;;28.60;99.90;;;;;;5034688;28;20266;-68
2021/07/13 08:26:33;;;;;;;12.73;11.43;;;28.50;99.90;;;;;;5037395;28;20243;-69
2021/07/13 08:29:03;;;;;;;12.03;11.03;;;28.80;99.90;;;;;;5039125;28;20662;-69
2021/07/13 08:31:31;;;;;;;13.20;11.17;;;29.00;99.90;;;;;;5038382;28;20250;-69
2021/07/13 08:33:59;;;;;;;13.10;11.80;;;29.10;99.90;;;;;;5035840;28;20893;-68
2021/07/13 08:36:27;;;;;;;12.37;11.03;;;29.00;99.90;;;;;;5038556;28;20250;-69
2021/07/13 08:38:56;;;;;;;12.53;11.33;;;28.80;99.90;;;;;;5038008;28;20252;-68
2021/07/13 08:41:24;;;;;;;12.80;11.70;;;29.20;99.90;;;;;;5037813;28;20607;-68
2021/07/13 08:43:53;;;;;;;12.53;11.17;;;29.20;99.90;;;;;;5034636;28;20243;-69
2021/07/13 08:46:23;;;;;;;14.20;12.77;;;29.10;99.90;;;;;;5044871;28;20240;-68
2021/07/13 08:48:54;;;;;;;14.50;13.30;;;29.00;99.90;;;;;;5038217;28;20243;-69
2021/07/13 08:51:23;;;;;;;16.03;14.63;;;28.90;99.90;;;;;;5043207;28;20727;-69
2021/07/13 08:53:51;;;;;;;15.63;14.20;;;29.20;99.90;;;;;;5035102;28;20254;-69
2021/07/13 08:56:19;;;;;;;11.57;10.57;;;29.60;99.90;;;;;;5039401;28;20330;-67
2021/07/13 08:58:47;;;;;;;13.17;11.80;;;30.20;99.90;;;;;;5030301;28;20279;-69
2021/07/13 09:01:15;;;;;;;14.47;13.30;;;30.50;99.90;;;;;;5031329;28;20240;-69
2021/07/13 09:03:55;;;;;;;12.93;11.70;;;30.30;99.90;;;;;;5032867;28;20333;-68
2021/07/13 09:06:24;;;;;;;12.10;11.10;;;30.40;99.90;;;;;;5030718;28;20250;-68
2021/07/13 09:08:53;;;;;;;12.90;11.70;;;30.40;99.90;;;;;;5030263;28;20239;-68
2021/07/13 09:11:22;;;;;;;14.10;12.77;;;30.40;99.90;;;;;;5035971;28;20796;-67
2021/07/13 09:13:53;;;;;;;12.53;11.23;;;30.30;99.90;;;;;;5034476;28;20620;-67
2021/07/13 09:16:24;;;;;;;12.43;11.37;;;30.40;99.90;;;;;;5038144;28;20248;-69
2021/07/13 09:18:55;;;;;;;11.30;10.30;;;30.10;99.90;;;;;;5035876;28;20330;-69
2021/07/13 09:21:25;;;;;;;12.23;11.00;;;30.20;99.90;;;;;;5051022;28;20288;-67
2021/07/13 09:24:08;;;;;;;12.93;11.60;;;30.50;99.90;;;;;;5040852;28;20243;-69
2021/07/13 09:26:43;;;;;;;12.20;11.07;;;30.40;99.90;;;;;;5038643;28;20232;-68
2021/07/13 09:29:36;;;;;;;13.23;12.03;;;30.30;99.90;;;;;;5042081;28;20284;-68
2021/07/13 09:32:28;;;;;;;11.80;10.80;;;30.00;99.90;;;;;;5030430;28;20251;-67
2021/07/13 09:35:02;;;;;;;13.60;12.17;;;30.30;99.90;;;;;;5031600;28;20615;-69
2021/07/13 09:37:31;;;;;;;13.00;11.97;;;30.40;99.90;;;;;;5049404;28;20330;-69
2021/07/13 09:40:07;;;;;;;13.57;12.27;;;30.00;99.90;;;;;;5046422;28;20246;-68
2021/07/13 09:42:37;;;;;;;15.30;13.77;;;29.90;99.90;;;;;;5030520;28;20321;-68
2021/07/13 09:45:20;;;;;;;13.43;12.27;;;30.20;99.90;;;;;;5042796;28;20261;-68
2021/07/13 09:47:50;;;;;;;11.13;10.00;;;30.60;99.90;;;;;;5042527;28;20325;-69
2021/07/13 09:50:39;;;;;;;11.43;10.43;;;31.20;99.90;;;;;;5048773;28;20811;-69
2021/07/13 09:53:11;;;;;;;11.90;10.90;;;31.30;99.90;;;;;;5035130;28;20723;-68
2021/07/13 09:55:39;;;;;;;11.23;10.30;;;30.50;99.90;;;;;;5030528;28;20263;-68
2021/07/13 09:58:18;;;;;;;11.50;10.50;;;30.40;99.90;;;;;;5031662;28;20250;-69
2021/07/13 10:00:49;;;;;;;11.73;10.63;;;30.40;99.90;;;;;;5031327;28;20338;-69
2021/07/13 10:03:19;;;;;;;11.67;10.57;;;30.20;99.90;;;;;;5030217;28;20240;-69
2021/07/13 10:05:50;;;;;;;9.83;9.10;;;30.50;99.90;;;;;;5051542;28;20239;-69
2021/07/13 10:08:19;;;;;;;11.20;10.13;;;31.00;99.90;;;;;;5040997;28;20250;-67
2021/07/13 10:10:49;;;;;;;10.93;9.77;;;31.40;99.90;;;;;;5048501;28;20298;-68
2021/07/13 10:13:19;;;;;;;9.90;9.20;;;31.40;99.90;;;;;;5043899;28;20240;-68
2021/07/13 10:15:48;;;;;;;10.67;9.63;;;31.30;99.90;;;;;;5041576;28;20334;-67
2021/07/13 10:18:21;;;;;;;9.53;8.73;;;31.50;99.90;;;;;;5032112;28;20249;-68
2021/07/13 10:20:53;;;;;;;9.77;8.97;;;31.50;99.90;;;;;;5030608;28;20768;-68
2021/07/13 10:23:21;;;;;;;11.40;10.40;;;31.30;99.90;;;;;;5029632;28;20335;-67
2021/07/13 10:25:53;;;;;;;10.30;9.40;;;31.40;99.90;;;;;;5045125;28;20233;-67
2021/07/13 10:28:31;;;;;;;9.73;9.00;;;31.70;99.90;;;;;;5032548;28;20230;-68
2021/07/13 10:30:59;;;;;;;9.67;8.97;;;31.90;99.90;;;;;;5030892;28;21041;-67
2021/07/13 10:33:35;;;;;;;9.03;8.13;;;31.80;99.90;;;;;;5028855;28;20251;-68
2021/07/13 10:36:31;;;;;;;9.23;8.50;;;32.50;99.90;;;;;;5029268;28;20252;-67
2021/07/13 10:39:24;;;;;;;10.57;9.57;;;32.10;99.90;;;;;;5036301;28;20323;-68
2021/07/13 10:41:53;;;;;;;10.43;9.53;;;30.90;99.90;;;;;;5041414;28;20259;-68
2021/07/13 10:44:42;;;;;;;10.60;9.60;;;30.20;99.90;;;;;;5043205;28;20299;-68
2021/07/13 10:47:28;;;;;;;9.50;8.77;;;30.40;99.90;;;;;;5044552;28;20333;-68
2021/07/13 10:50:37;;;;;;;10.23;9.53;;;31.20;99.90;;;;;;5041196;28;20245;-68
2021/07/13 10:53:09;;;;;;;9.70;9.00;;;31.60;99.90;;;;;;5030273;28;20240;-68
2021/07/13 10:55:46;;;;;;;9.73;8.90;;;32.10;99.90;;;;;;5024722;28;20287;-68
2021/07/13 10:58:29;;;;;;;10.83;9.83;;;32.20;99.90;;;;;;5043640;28;20249;-68
2021/07/13 11:01:10;;;;;;;9.10;8.40;;;32.70;99.90;;;;;;5044609;28;20262;-68
2021/07/13 11:04:05;;;;;;;9.67;8.87;;;32.90;99.90;;;;;;5043981;28;20245;-68
2021/07/13 11:06:51;;;;;;;10.23;9.43;;;32.30;99.90;;;;;;5020977;28;20329;-68
2021/07/13 11:09:24;;;;;;;10.77;9.87;;;31.60;99.90;;;;;;5042469;28;20266;-67
2021/07/13 11:11:53;;;;;;;10.40;9.50;;;31.30;99.90;;;;;;5043902;28;20917;-68
2021/07/13 11:14:21;;;;;;;10.50;9.70;;;31.00;99.90;;;;;;5041505;28;20233;-68
2021/07/13 11:16:52;;;;;;;10.70;9.70;;;31.00;99.90;;;;;;5044119;28;20235;-68
2021/07/13 11:19:21;;;;;;;10.07;9.27;;;31.10;99.90;;;;;;5041158;28;20315;-68
2021/07/13 11:21:52;;;;;;;9.80;8.90;;;30.70;99.90;;;;;;5043394;28;20243;-68
2021/07/13 11:24:23;;;;;;;9.93;9.07;;;30.40;99.90;;;;;;5043811;28;20237;-68
2021/07/13 11:26:54;;;;;;;10.23;9.40;;;30.20;99.90;;;;;;5041119;28;20265;-68
2021/07/13 11:29:25;;;;;;;10.20;9.27;;;30.10;99.90;;;;;;5044039;28;20699;-68
2021/07/13 11:31:57;;;;;;;10.20;9.30;;;30.10;99.90;;;;;;5044042;28;20673;-67
2021/07/13 11:34:28;;;;;;;9.97;9.27;;;30.10;99.90;;;;;;5043576;28;20293;-68
2021/07/13 11:36:56;;;;;;;10.87;9.93;;;29.90;99.90;;;;;;5044100;28;20241;-68
2021/07/13 11:39:29;;;;;;;9.77;8.77;;;29.80;99.90;;;;;;5043868;28;21035;-68
2021/07/13 11:41:59;;;;;;;10.27;9.47;;;29.90;99.90;;;;;;5044024;28;20242;-67
2021/07/13 11:44:27;;;;;;;9.50;8.80;;;30.10;99.90;;;;;;5043367;28;20325;-68
2021/07/13 11:46:56;;;;;;;9.47;8.70;;;30.10;99.90;;;;;;5042801;28;20242;-68
2021/07/13 11:49:26;;;;;;;9.43;8.77;;;30.30;99.90;;;;;;5043101;28;20239;-68
2021/07/13 11:51:56;;;;;;;9.27;8.53;;;30.50;99.90;;;;;;5041175;28;20240;-68
2021/07/13 11:54:28;;;;;;;9.53;8.73;;;30.90;99.90;;;;;;5043600;28;20304;-68
2021/07/13 11:56:57;;;;;;;9.53;8.63;;;31.70;99.90;;;;;;5043759;28;20719;-68
2021/07/13 11:59:27;;;;;;;9.73;8.93;;;31.50;99.90;;;;;;5042465;28;20252;-68
2021/07/13 12:01:57;;;;;;;9.77;8.83;;;30.80;99.90;;;;;;5045271;28;20262;-68
2021/07/13 12:04:26;;;;;;;10.33;9.43;;;30.60;99.90;;;;;;5047383;28;20239;-68
2021/07/13 12:06:56;;;;;;;10.37;9.50;;;30.60;99.90;;;;;;5047573;28;20736;-68
2021/07/13 12:09:28;;;;;;;10.17;9.37;;;30.50;99.90;;;;;;5046770;28;20239;-68
2021/07/13 12:11:58;;;;;;;9.40;8.70;;;30.40;99.90;;;;;;5046415;28;20639;-68
2021/07/13 12:14:27;;;;;;;10.10;9.00;;;30.40;99.90;;;;;;5046715;28;20318;-68
2021/07/13 12:16:57;;;;;;;9.73;8.93;;;30.20;99.90;;;;;;5046255;28;20247;-68
2021/07/13 12:19:28;;;;;;;10.70;9.57;;;30.30;99.90;;;;;;5045872;28;20251;-68
2021/07/13 12:21:59;;;;;;;9.83;9.03;;;30.20;99.90;;;;;;5043383;28;20244;-68
2021/07/13 12:24:34;;;;;;;9.90;9.00;;;30.20;99.90;;;;;;5039113;28;20569;-68
2021/07/13 12:27:05;;;;;;;9.43;8.73;;;30.50;99.90;;;;;;5039255;28;20252;-68
2021/07/13 12:29:40;;;;;;;9.03;8.43;;;30.40;99.90;;;;;;5037414;28;20292;-68
2021/07/13 12:32:16;;;;;;;9.07;8.37;;;30.60;99.90;;;;;;5036693;28;20594;-67
2021/07/13 12:34:45;;;;;;;9.20;8.50;;;30.60;99.90;;;;;;5036898;28;20240;-67
2021/07/13 12:37:16;;;;;;;9.40;8.63;;;30.50;99.90;;;;;;5037464;28;20265;-68
2021/07/13 12:39:50;;;;;;;9.30;8.50;;;30.40;99.90;;;;;;5036606;28;21234;-68
2021/07/13 12:42:23;;;;;;;9.03;8.23;;;30.40;99.90;;;;;;5035940;28;20723;-68
2021/07/13 12:44:59;;;;;;;9.13;8.40;;;30.70;99.90;;;;;;5036868;28;20236;-68
2021/07/13 12:47:33;;;;;;;9.17;8.37;;;30.70;99.90;;;;;;5037193;28;20252;-68
2021/07/13 12:50:21;;;;;;;8.73;8.13;;;30.50;99.90;;;;;;5046316;28;20240;-68